Time;durP1;ratioP1;P1;durP2;ratioP2;P2;SDS_P1;SDS_P2;PMS_P1;PMS_P2;Temp;Humidity;BMP_temperature;BMP_pressure;BME280_temperature;BME280_humidity;BME280_pressure;Samples;Min_cycle;Max_cycle;Signal;HPM_P1;HPM_P2
2023/12/25 00:01:38;;;;;;;2.58;0.93;;;;;;;;;;4999873;28;20207;-80
2023/12/25 00:04:10;;;;;;;4.22;0.98;;;;;;;;;;5002896;28;20218;-80
2023/12/25 00:06:40;;;;;;;3.65;0.90;;;;;;;;;;5012565;28;20227;-82
2023/12/25 00:09:13;;;;;;;4.43;1.10;;;;;;;;;;5012511;28;20203;-82
2023/12/25 00:11:43;;;;;;;2.05;1.00;;;;;;;;;;5009059;28;20296;-82
2023/12/25 00:14:13;;;;;;;2.60;0.95;;;;;;;;;;5004672;28;20203;-82
2023/12/25 00:16:43;;;;;;;3.50;1.02;;;;;;;;;;5020800;28;20199;-81
2023/12/25 00:19:15;;;;;;;2.92;0.90;;;;;;;;;;5008779;28;20209;-83
2023/12/25 00:21:48;;;;;;;2.25;0.95;;;;;;;;;;5015801;28;20702;-85
2023/12/25 00:24:18;;;;;;;1.63;0.70;;;;;;;;;;5016589;28;20199;-85
2023/12/25 00:26:47;;;;;;;5.95;1.00;;;;;;;;;;5015615;28;20223;-84
2023/12/25 00:29:16;;;;;;;2.75;0.75;;;;;;;;;;5011778;28;20203;-80
2023/12/25 00:31:47;;;;;;;1.25;0.68;;;;;;;;;;5016520;28;20257;-86
2023/12/25 00:34:19;;;;;;;1.55;0.75;;;;;;;;;;5012779;28;20543;-84
2023/12/25 00:36:49;;;;;;;10.18;2.58;;;;;;;;;;5015422;28;20217;-85
2023/12/25 00:39:19;;;;;;;2.22;0.90;;;;;;;;;;5011622;28;20198;-85
2023/12/25 00:41:49;;;;;;;3.78;1.17;;;;;;;;;;5002247;28;20205;-85
2023/12/25 00:44:18;;;;;;;9.63;2.78;;;;;;;;;;5006413;28;20210;-82
2023/12/25 00:46:48;;;;;;;7.57;1.80;;;;;;;;;;5005015;28;20237;-83
2023/12/25 00:49:20;;;;;;;3.25;1.08;;;;;;;;;;5014645;28;20199;-83
2023/12/25 00:51:50;;;;;;;2.92;0.75;;;;;;;;;;5016208;28;20199;-82
2023/12/25 00:54:20;;;;;;;5.70;1.40;;;;;;;;;;5016187;28;20570;-83
2023/12/25 00:56:50;;;;;;;2.20;0.80;;;;;;;;;;5015526;28;20322;-81
2023/12/25 00:59:20;;;;;;;2.20;0.93;;;;;;;;;;5014855;28;20205;-81
2023/12/25 01:01:50;;;;;;;1.95;0.85;;;;;;;;;;5015359;28;20210;-82
2023/12/25 01:04:21;;;;;;;3.10;1.02;;;;;;;;;;5015622;28;20669;-83
2023/12/25 01:06:51;;;;;;;2.47;1.00;;;;;;;;;;5014974;28;20697;-83
2023/12/25 01:09:21;;;;;;;3.15;1.15;;;;;;;;;;5003207;28;20203;-81
2023/12/25 01:11:51;;;;;;;1.30;1.00;;;;;;;;;;5013966;28;20608;-83
2023/12/25 01:14:21;;;;;;;1.63;1.00;;;;;;;;;;5016601;28;20199;-84
2023/12/25 01:16:51;;;;;;;2.08;1.10;;;;;;;;;;5015074;28;20218;-83
2023/12/25 01:19:23;;;;;;;4.53;1.20;;;;;;;;;;5024345;28;20207;-82
2023/12/25 01:21:53;;;;;;;2.33;1.00;;;;;;;;;;5015448;28;20203;-81
2023/12/25 01:24:23;;;;;;;3.45;1.17;;;;;;;;;;5015080;28;20290;-83
2023/12/25 01:26:53;;;;;;;3.50;1.20;;;;;;;;;;5015449;28;20237;-83
2023/12/25 01:29:23;;;;;;;4.80;1.50;;;;;;;;;;5018052;28;20210;-80
2023/12/25 01:31:53;;;;;;;2.30;1.25;;;;;;;;;;5015677;28;20198;-81
2023/12/25 01:34:24;;;;;;;3.22;1.20;;;;;;;;;;5003246;28;20226;-82
2023/12/25 01:36:54;;;;;;;2.35;1.27;;;;;;;;;;5014882;28;20194;-78
2023/12/25 01:39:25;;;;;;;2.88;1.58;;;;;;;;;;5015690;28;20202;-81
2023/12/25 01:41:55;;;;;;;2.58;1.23;;;;;;;;;;5006598;28;20234;-80
2023/12/25 01:44:25;;;;;;;2.65;1.30;;;;;;;;;;5009681;28;20207;-81
2023/12/25 01:46:55;;;;;;;4.30;1.40;;;;;;;;;;5008204;28;20242;-82
2023/12/25 01:49:28;;;;;;;1.77;1.27;;;;;;;;;;5012417;28;20206;-80
2023/12/25 01:51:58;;;;;;;3.58;1.30;;;;;;;;;;5011941;28;20570;-80
2023/12/25 01:54:28;;;;;;;1.95;1.33;;;;;;;;;;5013083;28;20210;-80
2023/12/25 01:56:57;;;;;;;1.35;1.10;;;;;;;;;;5012781;28;20203;-80
2023/12/25 01:59:29;;;;;;;1.75;1.40;;;;;;;;;;5012895;28;20229;-80
2023/12/25 02:02:00;;;;;;;1.40;1.30;;;;;;;;;;5006801;28;20569;-80
2023/12/25 02:04:32;;;;;;;3.45;1.52;;;;;;;;;;5012051;28;20198;-79
2023/12/25 02:07:02;;;;;;;2.13;1.70;;;;;;;;;;5013291;28;20226;-80
2023/12/25 02:09:32;;;;;;;2.08;1.52;;;;;;;;;;5014740;28;20205;-80
2023/12/25 02:12:02;;;;;;;2.08;1.50;;;;;;;;;;5010454;28;20282;-81
2023/12/25 02:14:32;;;;;;;1.73;1.58;;;;;;;;;;5006327;28;20207;-80
2023/12/25 02:17:02;;;;;;;1.70;1.58;;;;;;;;;;5014079;28;20217;-81
2023/12/25 02:19:38;;;;;;;3.38;1.77;;;;;;;;;;5013915;28;20203;-80
2023/12/25 02:22:08;;;;;;;2.45;1.70;;;;;;;;;;5014643;28;20231;-81
2023/12/25 02:24:40;;;;;;;1.98;1.60;;;;;;;;;;5014493;28;20234;-81
2023/12/25 02:27:11;;;;;;;3.30;1.40;;;;;;;;;;5014550;28;20214;-80
2023/12/25 02:29:41;;;;;;;2.35;1.30;;;;;;;;;;5002438;28;20678;-82
2023/12/25 02:32:11;;;;;;;1.77;1.30;;;;;;;;;;5014328;28;20203;-83
2023/12/25 02:34:43;;;;;;;3.17;1.40;;;;;;;;;;5014019;28;20203;-81
2023/12/25 02:37:13;;;;;;;1.50;0.85;;;;;;;;;;5014358;28;20205;-80
2023/12/25 02:39:43;;;;;;;1.45;0.80;;;;;;;;;;5014521;28;20198;-81
2023/12/25 02:42:15;;;;;;;2.08;0.80;;;;;;;;;;5012425;28;20245;-81
2023/12/25 02:44:45;;;;;;;1.92;0.80;;;;;;;;;;5005753;28;20221;-81
2023/12/25 02:47:15;;;;;;;2.28;0.70;;;;;;;;;;5014207;28;20705;-84
2023/12/25 02:49:45;;;;;;;1.20;0.60;;;;;;;;;;5014333;28;20647;-81
2023/12/25 02:52:15;;;;;;;1.15;0.70;;;;;;;;;;5014185;28;20571;-79
2023/12/25 02:54:45;;;;;;;0.90;0.50;;;;;;;;;;5014080;28;20207;-81
2023/12/25 02:57:16;;;;;;;3.28;0.80;;;;;;;;;;5014002;28;20278;-80
2023/12/25 02:59:46;;;;;;;2.28;0.85;;;;;;;;;;5013669;28;20209;-81
2023/12/25 03:02:19;;;;;;;1.38;0.55;;;;;;;;;;5010384;28;20213;-80
2023/12/25 03:04:49;;;;;;;2.58;0.63;;;;;;;;;;5013949;28;20226;-81
2023/12/25 03:07:19;;;;;;;1.73;0.65;;;;;;;;;;5013885;28;20237;-80
2023/12/25 03:09:49;;;;;;;1.23;0.70;;;;;;;;;;5013920;28;20210;-81
2023/12/25 03:12:20;;;;;;;4.07;0.73;;;;;;;;;;5007392;28;20215;-81
2023/12/25 03:14:50;;;;;;;3.00;0.68;;;;;;;;;;5005127;28;20651;-81
2023/12/25 03:17:20;;;;;;;3.05;0.70;;;;;;;;;;5014100;28;20232;-80
2023/12/25 03:19:50;;;;;;;2.83;0.80;;;;;;;;;;5013716;28;20658;-80
2023/12/25 03:22:20;;;;;;;4.18;0.70;;;;;;;;;;5013555;28;20229;-80
2023/12/25 03:24:50;;;;;;;2.53;0.57;;;;;;;;;;5013528;28;20213;-80
2023/12/25 03:27:22;;;;;;;2.15;0.65;;;;;;;;;;5013195;28;20597;-82
2023/12/25 03:29:52;;;;;;;2.60;0.70;;;;;;;;;;5013720;28;20195;-81
2023/12/25 03:32:22;;;;;;;5.00;1.17;;;;;;;;;;5013432;28;20578;-81
2023/12/25 03:34:52;;;;;;;2.83;0.75;;;;;;;;;;5013588;28;20199;-81
2023/12/25 03:37:22;;;;;;;3.75;0.55;;;;;;;;;;5013552;28;20198;-79
2023/12/25 03:39:52;;;;;;;1.98;0.70;;;;;;;;;;5013507;28;20668;-81
2023/12/25 03:42:23;;;;;;;4.18;0.80;;;;;;;;;;5006218;28;20685;-81
2023/12/25 03:44:53;;;;;;;3.42;0.73;;;;;;;;;;4994189;28;20206;-78
2023/12/25 03:47:23;;;;;;;5.13;0.70;;;;;;;;;;5001860;28;20248;-81
2023/12/25 03:49:53;;;;;;;4.43;0.80;;;;;;;;;;5017407;28;20209;-79
2023/12/25 03:52:23;;;;;;;4.97;0.73;;;;;;;;;;5017314;28;20217;-80
2023/12/25 03:54:53;;;;;;;5.97;0.85;;;;;;;;;;5016972;28;20718;-80
2023/12/25 03:57:25;;;;;;;3.42;0.70;;;;;;;;;;5017153;28;20286;-79
2023/12/25 03:59:55;;;;;;;7.82;1.10;;;;;;;;;;5017418;28;20659;-81
2023/12/25 04:02:25;;;;;;;2.00;0.60;;;;;;;;;;5011292;28;20204;-80
2023/12/25 04:04:54;;;;;;;5.15;1.25;;;;;;;;;;5017252;28;20223;-80
2023/12/25 04:07:24;;;;;;;3.38;0.70;;;;;;;;;;5017178;28;20227;-83
2023/12/25 04:09:54;;;;;;;2.00;0.80;;;;;;;;;;5016712;28;20217;-80
2023/12/25 04:12:26;;;;;;;2.55;0.68;;;;;;;;;;5016901;28;20202;-81
2023/12/25 04:14:56;;;;;;;6.28;0.95;;;;;;;;;;5017286;28;20198;-81
2023/12/25 04:17:26;;;;;;;4.72;0.80;;;;;;;;;;5017399;28;20658;-80
2023/12/25 04:19:56;;;;;;;5.25;0.90;;;;;;;;;;5017394;28;20207;-82
2023/12/25 04:22:26;;;;;;;2.40;0.70;;;;;;;;;;5017311;28;20559;-80
2023/12/25 04:24:56;;;;;;;3.70;0.93;;;;;;;;;;5016916;28;20202;-80
2023/12/25 04:27:28;;;;;;;4.32;0.80;;;;;;;;;;5017188;28;20769;-81
2023/12/25 04:29:58;;;;;;;1.73;0.60;;;;;;;;;;5016155;28;20191;-79
2023/12/25 04:32:28;;;;;;;3.28;0.80;;;;;;;;;;5017045;28;20224;-78
2023/12/25 04:34:58;;;;;;;4.95;0.85;;;;;;;;;;5016917;28;20206;-80
2023/12/25 04:37:28;;;;;;;3.67;1.00;;;;;;;;;;5016997;28;20211;-81
2023/12/25 04:39:58;;;;;;;2.22;0.90;;;;;;;;;;5017057;28;20213;-80
2023/12/25 04:42:30;;;;;;;2.47;0.80;;;;;;;;;;5017267;28;20213;-81
2023/12/25 04:45:00;;;;;;;3.28;0.80;;;;;;;;;;5016742;28;20714;-79
2023/12/25 04:47:29;;;;;;;2.70;0.75;;;;;;;;;;5016693;28;20235;-80
2023/12/25 04:49:59;;;;;;;5.35;1.15;;;;;;;;;;5016838;28;20207;-80
2023/12/25 04:52:29;;;;;;;4.97;0.93;;;;;;;;;;5016734;28;20214;-80
2023/12/25 04:54:59;;;;;;;5.38;0.63;;;;;;;;;;5016278;28;20231;-79
2023/12/25 04:57:31;;;;;;;2.25;0.75;;;;;;;;;;5016521;28;20553;-80
2023/12/25 05:00:01;;;;;;;3.95;0.70;;;;;;;;;;5016368;28;20195;-80
2023/12/25 05:02:31;;;;;;;2.08;0.70;;;;;;;;;;5013915;28;20213;-80
2023/12/25 05:05:02;;;;;;;3.65;0.70;;;;;;;;;;5008169;28;20226;-80
2023/12/25 05:07:32;;;;;;;2.75;0.77;;;;;;;;;;5016258;28;20215;-80
2023/12/25 05:10:03;;;;;;;3.58;0.73;;;;;;;;;;5016399;28;20203;-81
2023/12/25 05:12:34;;;;;;;4.13;1.00;;;;;;;;;;5016361;28;20195;-79
2023/12/25 05:15:04;;;;;;;4.53;1.00;;;;;;;;;;5016163;28;20191;-80
2023/12/25 05:17:34;;;;;;;3.65;0.88;;;;;;;;;;5016369;28;20213;-80
2023/12/25 05:20:04;;;;;;;5.35;0.88;;;;;;;;;;5016317;28;20289;-81
2023/12/25 05:22:34;;;;;;;4.10;0.80;;;;;;;;;;5016500;28;20207;-80
2023/12/25 05:25:04;;;;;;;2.72;0.85;;;;;;;;;;5015838;28;20667;-80
2023/12/25 05:27:36;;;;;;;4.80;1.23;;;;;;;;;;5016020;28;20226;-81
2023/12/25 05:30:06;;;;;;;4.95;0.95;;;;;;;;;;5015911;28;20643;-84
2023/12/25 05:32:36;;;;;;;4.25;0.82;;;;;;;;;;5015896;28;20209;-82
2023/12/25 05:35:07;;;;;;;4.13;0.93;;;;;;;;;;5016238;28;20195;-81
2023/12/25 05:37:37;;;;;;;4.32;0.90;;;;;;;;;;5015646;28;20297;-82
2023/12/25 05:40:07;;;;;;;3.10;0.70;;;;;;;;;;5016016;28;20203;-82
2023/12/25 05:42:39;;;;;;;2.30;0.70;;;;;;;;;;5015782;28;20218;-81
2023/12/25 05:45:09;;;;;;;5.38;1.00;;;;;;;;;;5015731;28;20202;-82
2023/12/25 05:47:39;;;;;;;2.50;0.90;;;;;;;;;;5016073;28;20315;-80
2023/12/25 05:50:10;;;;;;;4.88;1.00;;;;;;;;;;5015768;28;20199;-81
2023/12/25 05:52:40;;;;;;;2.17;0.70;;;;;;;;;;5015310;28;20261;-81
2023/12/25 05:55:10;;;;;;;4.53;0.80;;;;;;;;;;5015565;28;20288;-80
2023/12/25 05:57:42;;;;;;;3.90;0.85;;;;;;;;;;5015495;28;20278;-81
2023/12/25 06:00:13;;;;;;;3.45;0.77;;;;;;;;;;5015464;28;20191;-81
2023/12/25 06:02:43;;;;;;;4.13;0.95;;;;;;;;;;5015364;28;20201;-80
2023/12/25 06:05:12;;;;;;;2.85;1.00;;;;;;;;;;5011841;28;20310;-81
2023/12/25 06:07:42;;;;;;;3.28;1.10;;;;;;;;;;5015106;28;20227;-81
2023/12/25 06:10:12;;;;;;;6.03;1.00;;;;;;;;;;5014781;28;20665;-82
2023/12/25 06:12:44;;;;;;;9.95;1.30;;;;;;;;;;5015342;28;20203;-81
2023/12/25 06:15:14;;;;;;;3.85;1.10;;;;;;;;;;5015555;28;20202;-82
2023/12/25 06:17:44;;;;;;;2.60;1.05;;;;;;;;;;5015413;28;20207;-81
2023/12/25 06:20:14;;;;;;;3.78;1.05;;;;;;;;;;5015185;28;20203;-81
2023/12/25 06:22:44;;;;;;;2.60;0.90;;;;;;;;;;5014783;28;20206;-81
2023/12/25 06:25:14;;;;;;;3.25;0.90;;;;;;;;;;5015011;28;20205;-81
2023/12/25 06:27:46;;;;;;;2.13;0.90;;;;;;;;;;5014908;28;20238;-81
2023/12/25 06:30:16;;;;;;;4.72;1.08;;;;;;;;;;5011183;28;20661;-82
2023/12/25 06:32:46;;;;;;;2.78;0.80;;;;;;;;;;5014930;28;20202;-81
2023/12/25 06:35:16;;;;;;;3.20;1.00;;;;;;;;;;5014897;28;20203;-81
2023/12/25 06:37:46;;;;;;;2.90;0.90;;;;;;;;;;5014639;28;20548;-80
2023/12/25 06:40:16;;;;;;;4.28;1.27;;;;;;;;;;5014927;28;20199;-81
2023/12/25 06:42:48;;;;;;;6.07;1.13;;;;;;;;;;5014617;28;20202;-78
2023/12/25 06:45:21;;;;;;;2.78;0.95;;;;;;;;;;5014617;28;20664;-82
2023/12/25 06:47:52;;;;;;;2.88;1.23;;;;;;;;;;5014548;28;20191;-81
2023/12/25 06:50:22;;;;;;;5.50;1.23;;;;;;;;;;5014470;28;20195;-82
2023/12/25 06:52:52;;;;;;;3.25;1.25;;;;;;;;;;5014870;28;20210;-83
2023/12/25 06:55:22;;;;;;;3.13;1.30;;;;;;;;;;5014124;28;20278;-82
2023/12/25 06:57:54;;;;;;;3.67;0.90;;;;;;;;;;5014489;28;20203;-82
2023/12/25 07:00:24;;;;;;;3.65;0.90;;;;;;;;;;5014458;28;20199;-82
2023/12/25 07:02:54;;;;;;;3.10;1.20;;;;;;;;;;5014526;28;20203;-83
2023/12/25 07:05:24;;;;;;;4.13;1.23;;;;;;;;;;5015209;28;20223;-84
2023/12/25 07:07:54;;;;;;;5.78;1.05;;;;;;;;;;5014202;28;20214;-83
2023/12/25 07:10:24;;;;;;;4.93;1.27;;;;;;;;;;5014407;28;20211;-81
2023/12/25 07:12:55;;;;;;;5.90;1.58;;;;;;;;;;5014262;28;20202;-80
2023/12/25 07:15:27;;;;;;;4.40;1.20;;;;;;;;;;5014256;28;20192;-79
2023/12/25 07:17:57;;;;;;;3.95;1.23;;;;;;;;;;5014563;28;20217;-80
2023/12/25 07:20:27;;;;;;;4.00;1.10;;;;;;;;;;5014154;28;20293;-80
2023/12/25 07:22:57;;;;;;;3.30;1.10;;;;;;;;;;5013950;28;20203;-80
2023/12/25 07:25:27;;;;;;;7.07;1.25;;;;;;;;;;5014203;28;20213;-79
2023/12/25 07:27:59;;;;;;;5.07;1.38;;;;;;;;;;5013820;28;20654;-80
2023/12/25 07:30:29;;;;;;;7.28;1.60;;;;;;;;;;5010551;28;20638;-79
2023/12/25 07:32:59;;;;;;;4.60;1.30;;;;;;;;;;5014114;28;20285;-77
2023/12/25 07:35:29;;;;;;;6.05;1.40;;;;;;;;;;5013742;28;20199;-81
2023/12/25 07:37:59;;;;;;;7.78;1.40;;;;;;;;;;5013373;28;20570;-80
2023/12/25 07:40:29;;;;;;;4.03;1.00;;;;;;;;;;5013852;28;20195;-82
2023/12/25 07:43:01;;;;;;;4.15;1.42;;;;;;;;;;5013936;28;20671;-81
2023/12/25 07:45:31;;;;;;;6.32;1.38;;;;;;;;;;5013734;28;20635;-81
2023/12/25 07:48:01;;;;;;;5.88;1.20;;;;;;;;;;5013336;28;20261;-82
2023/12/25 07:50:31;;;;;;;4.60;1.27;;;;;;;;;;5013822;28;20197;-81
2023/12/25 07:53:01;;;;;;;4.05;1.30;;;;;;;;;;5013927;28;20217;-81
2023/12/25 07:55:32;;;;;;;4.40;1.25;;;;;;;;;;5013723;28;20234;-81
2023/12/25 07:58:04;;;;;;;3.47;1.48;;;;;;;;;;5013909;28;20673;-81
2023/12/25 08:00:34;;;;;;;3.63;1.10;;;;;;;;;;5013582;28;20237;-81
2023/12/25 08:03:04;;;;;;;3.65;1.25;;;;;;;;;;5013430;28;20290;-81
2023/12/25 08:05:34;;;;;;;3.03;1.10;;;;;;;;;;5013430;28;20233;-81
2023/12/25 08:08:04;;;;;;;4.13;1.20;;;;;;;;;;5013447;28;20202;-82
2023/12/25 08:10:34;;;;;;;7.45;1.50;;;;;;;;;;5013830;28;20207;-81
2023/12/25 08:13:06;;;;;;;7.63;1.30;;;;;;;;;;5013809;28;20199;-81
2023/12/25 08:15:36;;;;;;;5.38;1.10;;;;;;;;;;5002390;28;20644;-81
2023/12/25 08:18:06;;;;;;;5.88;1.17;;;;;;;;;;5000140;28;20545;-80
2023/12/25 08:20:36;;;;;;;6.00;1.40;;;;;;;;;;5010149;28;20217;-81
2023/12/25 08:23:06;;;;;;;5.75;1.20;;;;;;;;;;5017307;28;20198;-81
2023/12/25 08:25:37;;;;;;;5.90;1.30;;;;;;;;;;5009242;28;20200;-80
2023/12/25 08:28:09;;;;;;;8.82;1.40;;;;;;;;;;5006049;28;20647;-78
2023/12/25 08:30:39;;;;;;;5.18;1.20;;;;;;;;;;5005840;28;20199;-80
2023/12/25 08:33:09;;;;;;;3.47;1.17;;;;;;;;;;4998407;28;20218;-81
2023/12/25 08:35:39;;;;;;;4.68;1.30;;;;;;;;;;5006457;28;20202;-80
2023/12/25 08:38:09;;;;;;;4.55;1.40;;;;;;;;;;5015138;28;20202;-80
2023/12/25 08:40:42;;;;;;;5.32;1.40;;;;;;;;;;5010813;28;20206;-81
2023/12/25 08:43:13;;;;;;;4.00;1.40;;;;;;;;;;5017029;28;20198;-80
2023/12/25 08:45:43;;;;;;;9.95;1.40;;;;;;;;;;5020901;28;20688;-81
2023/12/25 08:48:13;;;;;;;6.90;1.55;;;;;;;;;;5020891;28;20581;-79
2023/12/25 08:50:44;;;;;;;4.70;1.20;;;;;;;;;;5008063;28;20202;-79
2023/12/25 08:53:13;;;;;;;7.57;1.20;;;;;;;;;;5016046;28;20261;-80
2023/12/25 08:55:43;;;;;;;8.80;1.83;;;;;;;;;;5004785;28;20239;-81
2023/12/25 08:58:15;;;;;;;3.47;1.20;;;;;;;;;;5012480;28;20203;-81
2023/12/25 09:00:45;;;;;;;4.78;1.23;;;;;;;;;;5011338;28;20683;-81
2023/12/25 09:03:15;;;;;;;3.42;1.20;;;;;;;;;;5014588;28;20673;-78
2023/12/25 09:05:45;;;;;;;5.30;1.30;;;;;;;;;;5014878;28;20233;-81
2023/12/25 09:08:15;;;;;;;5.07;1.35;;;;;;;;;;5015642;28;20209;-81
2023/12/25 09:10:45;;;;;;;3.28;1.45;;;;;;;;;;5016495;28;20203;-82
2023/12/25 09:13:17;;;;;;;4.82;1.30;;;;;;;;;;5015696;28;20207;-82
2023/12/25 09:15:47;;;;;;;5.25;1.20;;;;;;;;;;5015364;28;20571;-80
2023/12/25 09:18:17;;;;;;;4.78;1.38;;;;;;;;;;5011616;28;20228;-79
2023/12/25 09:20:47;;;;;;;4.03;1.35;;;;;;;;;;5015220;28;20207;-81
2023/12/25 09:23:18;;;;;;;6.03;1.40;;;;;;;;;;5008221;28;20262;-81
2023/12/25 09:25:48;;;;;;;3.75;1.25;;;;;;;;;;5011640;28;20221;-80
2023/12/25 09:28:19;;;;;;;5.32;1.27;;;;;;;;;;5013606;28;20207;-80
2023/12/25 09:30:49;;;;;;;5.93;1.40;;;;;;;;;;5009684;28;20389;-80
2023/12/25 09:33:19;;;;;;;5.50;1.30;;;;;;;;;;5009167;28;20287;-81
2023/12/25 09:35:51;;;;;;;3.25;1.50;;;;;;;;;;5014891;28;20563;-80
2023/12/25 09:38:21;;;;;;;6.18;1.60;;;;;;;;;;5015279;28;20203;-83
2023/12/25 09:40:52;;;;;;;5.57;1.35;;;;;;;;;;5003000;28;20682;-82
2023/12/25 09:43:24;;;;;;;5.57;1.63;;;;;;;;;;5014776;28;20567;-81
2023/12/25 09:45:54;;;;;;;4.82;1.40;;;;;;;;;;5015366;28;20667;-82
2023/12/25 09:48:24;;;;;;;3.58;1.33;;;;;;;;;;5011998;28;20199;-81
2023/12/25 09:50:54;;;;;;;4.68;1.30;;;;;;;;;;4996668;28;20601;-80
2023/12/25 09:53:24;;;;;;;6.43;1.30;;;;;;;;;;5013114;28;20632;-82
2023/12/25 09:55:54;;;;;;;4.78;1.45;;;;;;;;;;5011837;28;20702;-82
2023/12/25 09:58:26;;;;;;;7.55;1.50;;;;;;;;;;5014727;28;20282;-82
2023/12/25 10:00:57;;;;;;;3.88;1.30;;;;;;;;;;5014347;28;20191;-83
2023/12/25 10:03:29;;;;;;;7.30;1.65;;;;;;;;;;5007154;28;20207;-83
2023/12/25 10:05:58;;;;;;;8.52;1.88;;;;;;;;;;5014731;28;20234;-83
2023/12/25 10:08:28;;;;;;;11.35;1.60;;;;;;;;;;5014745;28;20199;-83
2023/12/25 10:10:58;;;;;;;7.93;1.52;;;;;;;;;;5014815;28;20336;-82
2023/12/25 10:13:30;;;;;;;6.97;1.70;;;;;;;;;;5014542;28;20207;-82
2023/12/25 10:16:00;;;;;;;5.45;1.45;;;;;;;;;;5014578;28;20195;-82
2023/12/25 10:18:30;;;;;;;8.00;1.58;;;;;;;;;;5012797;28;20205;-81
2023/12/25 10:21:01;;;;;;;7.28;1.40;;;;;;;;;;5004268;28;20230;-82
2023/12/25 10:23:31;;;;;;;7.25;1.80;;;;;;;;;;5014786;28;20290;-83
2023/12/25 10:26:02;;;;;;;8.32;1.65;;;;;;;;;;5014483;28;20203;-82
2023/12/25 10:28:34;;;;;;;8.07;1.52;;;;;;;;;;5012703;28;20393;-83
2023/12/25 10:31:04;;;;;;;8.30;1.70;;;;;;;;;;5007022;28;20214;-83
2023/12/25 10:33:34;;;;;;;7.80;1.50;;;;;;;;;;5005924;28;20577;-83
2023/12/25 10:36:05;;;;;;;6.53;1.30;;;;;;;;;;5014093;28;20199;-83
2023/12/25 10:38:36;;;;;;;8.02;1.30;;;;;;;;;;5014225;28;20202;-82
2023/12/25 10:41:22;;;;;;;5.63;1.50;;;;;;;;;;5019896;28;20206;-83
2023/12/25 10:43:58;;;;;;;6.90;1.50;;;;;;;;;;5012885;28;20655;-82
2023/12/25 10:46:29;;;;;;;5.78;1.48;;;;;;;;;;5003798;28;20199;-82
2023/12/25 10:48:59;;;;;;;6.32;1.20;;;;;;;;;;4994718;28;20199;-82
2023/12/25 10:51:30;;;;;;;7.93;1.35;;;;;;;;;;4999651;28;20202;-82
2023/12/25 10:54:01;;;;;;;9.63;1.50;;;;;;;;;;5003163;28;20191;-81
2023/12/25 10:56:33;;;;;;;7.95;1.52;;;;;;;;;;5001402;28;20254;-81
2023/12/25 10:59:10;;;;;;;6.75;1.42;;;;;;;;;;5013040;28;20191;-82
2023/12/25 11:01:40;;;;;;;8.98;1.42;;;;;;;;;;5012594;28;20191;-82
2023/12/25 11:04:10;;;;;;;9.05;2.03;;;;;;;;;;5013766;28;20223;-82
2023/12/25 11:06:40;;;;;;;6.72;1.50;;;;;;;;;;4999164;28;20199;-83
2023/12/25 11:09:10;;;;;;;6.03;1.30;;;;;;;;;;4995719;28;20203;-83
2023/12/25 11:11:42;;;;;;;6.63;1.42;;;;;;;;;;5013908;28;20205;-83
2023/12/25 11:14:15;;;;;;;8.25;1.50;;;;;;;;;;5014105;28;20195;-83
2023/12/25 11:16:46;;;;;;;8.40;1.95;;;;;;;;;;5012320;28;20217;-84
2023/12/25 11:19:16;;;;;;;8.23;1.20;;;;;;;;;;4995162;28;20199;-82
2023/12/25 11:21:46;;;;;;;9.07;1.60;;;;;;;;;;4999981;28;20195;-83
2023/12/25 11:24:16;;;;;;;7.72;1.40;;;;;;;;;;5006510;28;20663;-83
2023/12/25 11:26:46;;;;;;;3.13;1.20;;;;;;;;;;5012780;28;20258;-82
2023/12/25 11:29:18;;;;;;;10.15;1.40;;;;;;;;;;5013371;28;20194;-81
2023/12/25 11:31:51;;;;;;;8.40;1.38;;;;;;;;;;5005208;28;20187;-81
2023/12/25 11:34:22;;;;;;;3.33;1.10;;;;;;;;;;5023910;28;20693;-82
2023/12/25 11:36:54;;;;;;;8.23;1.40;;;;;;;;;;5033454;28;20213;-83
2023/12/25 11:39:26;;;;;;;10.93;1.17;;;;;;;;;;5016867;28;20190;-81
2023/12/25 11:41:56;;;;;;;4.18;1.20;;;;;;;;;;4997975;28;20198;-83
2023/12/25 11:44:35;;;;;;;6.25;1.40;;;;;;;;;;5013284;28;20191;-84
2023/12/25 11:47:05;;;;;;;5.55;1.40;;;;;;;;;;5004660;28;20609;-83
2023/12/25 11:49:36;;;;;;;7.65;1.30;;;;;;;;;;5002468;28;20241;-83
2023/12/25 11:52:06;;;;;;;4.20;1.15;;;;;;;;;;5017498;28;20217;-83
2023/12/25 11:54:38;;;;;;;6.40;1.30;;;;;;;;;;5007516;28;20295;-82
2023/12/25 11:57:19;;;;;;;8.65;1.38;;;;;;;;;;5014085;28;20186;-83
2023/12/25 11:59:51;;;;;;;4.28;1.25;;;;;;;;;;5014158;28;20199;-82
2023/12/25 12:02:21;;;;;;;6.15;1.10;;;;;;;;;;5013554;28;20190;-83
2023/12/25 12:04:51;;;;;;;4.32;1.00;;;;;;;;;;5012695;28;20215;-82
2023/12/25 12:07:21;;;;;;;7.07;1.50;;;;;;;;;;5009967;28;20275;-83
2023/12/25 12:09:51;;;;;;;5.25;1.58;;;;;;;;;;5009075;28;20257;-83
2023/12/25 12:12:21;;;;;;;6.07;1.30;;;;;;;;;;5011318;28;20206;-83
2023/12/25 12:14:52;;;;;;;4.35;1.25;;;;;;;;;;5015868;28;20201;-82
2023/12/25 12:17:25;;;;;;;4.63;1.25;;;;;;;;;;5012759;28;20198;-83
2023/12/25 12:19:55;;;;;;;8.32;1.13;;;;;;;;;;5013276;28;20241;-82
2023/12/25 12:22:25;;;;;;;3.75;1.10;;;;;;;;;;5015458;28;20199;-81
2023/12/25 12:24:55;;;;;;;4.93;1.20;;;;;;;;;;5014044;28;20195;-83
2023/12/25 12:27:25;;;;;;;5.63;1.20;;;;;;;;;;5008773;28;20565;-81
2023/12/25 12:29:57;;;;;;;6.13;1.38;;;;;;;;;;5007244;28;20211;-82
2023/12/25 12:32:27;;;;;;;5.57;1.90;;;;;;;;;;5009819;28;20196;-83
2023/12/25 12:34:57;;;;;;;6.68;1.80;;;;;;;;;;5009396;28;20726;-82
2023/12/25 12:37:28;;;;;;;6.35;1.42;;;;;;;;;;5015836;28;20689;-81
2023/12/25 12:40:02;;;;;;;5.95;1.30;;;;;;;;;;5015118;28;20222;-82
2023/12/25 12:42:34;;;;;;;5.22;1.40;;;;;;;;;;5013995;28;20245;-83
2023/12/25 12:45:06;;;;;;;4.95;1.77;;;;;;;;;;5015565;28;20195;-83
2023/12/25 12:47:37;;;;;;;4.50;1.00;;;;;;;;;;5016408;28;20202;-83
2023/12/25 12:50:07;;;;;;;4.35;1.00;;;;;;;;;;5010403;28;20214;-83
2023/12/25 12:52:37;;;;;;;4.82;1.10;;;;;;;;;;5013776;28;20195;-84
2023/12/25 12:55:07;;;;;;;4.32;1.23;;;;;;;;;;5014977;28;20571;-82
2023/12/25 12:57:37;;;;;;;7.55;1.40;;;;;;;;;;5004473;28;20194;-83
2023/12/25 13:00:10;;;;;;;5.75;1.50;;;;;;;;;;5007993;28;20215;-83
2023/12/25 13:02:42;;;;;;;6.82;1.40;;;;;;;;;;5015979;28;20275;-83
2023/12/25 13:05:12;;;;;;;3.92;1.10;;;;;;;;;;5017412;28;20214;-83
2023/12/25 13:07:42;;;;;;;5.75;1.30;;;;;;;;;;5015910;28;20281;-84
2023/12/25 13:10:12;;;;;;;6.53;1.50;;;;;;;;;;5009521;28;20258;-84
2023/12/25 13:12:42;;;;;;;8.23;1.90;;;;;;;;;;5009918;28;20205;-83
2023/12/25 13:15:14;;;;;;;4.82;1.65;;;;;;;;;;5007693;28;20205;-83
2023/12/25 13:17:44;;;;;;;6.38;1.60;;;;;;;;;;5016505;28;20242;-83
2023/12/25 13:20:14;;;;;;;8.55;1.40;;;;;;;;;;5015885;28;20286;-83
2023/12/25 13:22:44;;;;;;;7.57;1.70;;;;;;;;;;5015400;28;20261;-83
2023/12/25 13:25:14;;;;;;;4.80;1.38;;;;;;;;;;5007349;28;20695;-83
2023/12/25 13:27:44;;;;;;;5.78;1.77;;;;;;;;;;5006052;28;20333;-83
2023/12/25 13:30:16;;;;;;;11.75;1.73;;;;;;;;;;5010381;28;20231;-84
2023/12/25 13:32:46;;;;;;;7.95;1.90;;;;;;;;;;5015501;28;20191;-82
2023/12/25 13:35:18;;;;;;;10.90;1.70;;;;;;;;;;5011194;28;20575;-84
2023/12/25 13:37:48;;;;;;;7.13;1.60;;;;;;;;;;5014920;28;20560;-84
2023/12/25 13:40:18;;;;;;;13.70;2.50;;;;;;;;;;5015241;28;20202;-83
2023/12/25 13:42:48;;;;;;;16.35;2.55;;;;;;;;;;5014209;28;20203;-83
2023/12/25 13:45:20;;;;;;;12.27;2.17;;;;;;;;;;5005906;28;20241;-84
2023/12/25 13:47:50;;;;;;;13.55;2.10;;;;;;;;;;5005458;28;20270;-81
2023/12/25 13:50:20;;;;;;;18.13;2.53;;;;;;;;;;5007867;28;20313;-83
2023/12/25 13:52:50;;;;;;;20.15;2.67;;;;;;;;;;5014902;28;20662;-81
2023/12/25 13:55:20;;;;;;;15.95;2.90;;;;;;;;;;5014611;28;20262;-83
2023/12/25 13:57:50;;;;;;;10.55;2.47;;;;;;;;;;5015644;28;20242;-83
2023/12/25 14:00:22;;;;;;;12.68;2.30;;;;;;;;;;5015558;28;20217;-84
2023/12/25 14:02:54;;;;;;;14.05;2.42;;;;;;;;;;5015660;28;20198;-83
2023/12/25 14:05:24;;;;;;;15.82;2.42;;;;;;;;;;5000176;28;20249;-81
2023/12/25 14:07:54;;;;;;;15.75;2.58;;;;;;;;;;4996856;28;20646;-83
2023/12/25 14:10:24;;;;;;;19.60;2.53;;;;;;;;;;4995587;28;20326;-82
2023/12/25 14:12:54;;;;;;;15.55;2.40;;;;;;;;;;4996040;28;20282;-83
2023/12/25 14:15:26;;;;;;;19.35;2.72;;;;;;;;;;5010755;28;20286;-83
2023/12/25 14:17:56;;;;;;;14.35;2.20;;;;;;;;;;5015317;28;20199;-83
2023/12/25 14:20:26;;;;;;;13.10;2.47;;;;;;;;;;5014647;28;20230;-83
2023/12/25 14:22:56;;;;;;;14.63;2.63;;;;;;;;;;5015102;28;20285;-83
2023/12/25 14:25:26;;;;;;;11.27;2.03;;;;;;;;;;5015162;28;20277;-83
2023/12/25 14:27:56;;;;;;;11.35;2.03;;;;;;;;;;5014686;28;20199;-83
2023/12/25 14:30:28;;;;;;;11.35;1.92;;;;;;;;;;5014129;28;20305;-84
2023/12/25 14:32:58;;;;;;;16.15;2.05;;;;;;;;;;5014139;28;20699;-81
2023/12/25 14:35:28;;;;;;;15.10;2.22;;;;;;;;;;5010642;28;20230;-83
2023/12/25 14:37:58;;;;;;;18.52;2.40;;;;;;;;;;5014099;28;20203;-83
2023/12/25 14:40:28;;;;;;;17.88;2.45;;;;;;;;;;5014518;28;20202;-83
2023/12/25 14:42:58;;;;;;;19.20;2.42;;;;;;;;;;5010319;28;20730;-82
2023/12/25 14:45:30;;;;;;;20.77;2.85;;;;;;;;;;5013476;28;20269;-83
2023/12/25 14:48:00;;;;;;;13.65;1.92;;;;;;;;;;5014687;28;20657;-82
2023/12/25 14:50:30;;;;;;;17.52;2.58;;;;;;;;;;5005925;28;20306;-83
2023/12/25 14:53:00;;;;;;;19.33;2.85;;;;;;;;;;5011641;28;20210;-82
2023/12/25 14:55:30;;;;;;;19.10;3.35;;;;;;;;;;5012970;28;20580;-84
2023/12/25 14:58:03;;;;;;;19.13;2.65;;;;;;;;;;5002537;28;20297;-83
2023/12/25 15:00:35;;;;;;;21.33;2.80;;;;;;;;;;5006863;28;20195;-83